createdAt,value
2022-12-09T00:01:44.921Z,3.03
2022-12-09T00:04:15.075Z,3.13
2022-12-09T00:06:45.639Z,3.85
2022-12-09T00:09:18.813Z,2.65
2022-12-09T00:11:49.691Z,3.22
2022-12-09T00:14:19.694Z,3.17
2022-12-09T00:16:55.496Z,3.72
2022-12-09T00:19:22.797Z,2.92
2022-12-09T00:21:55.417Z,3.10
2022-12-09T00:24:28.132Z,3.03
2022-12-09T00:27:00.816Z,2.60
2022-12-09T00:29:31.194Z,3.15
2022-12-09T00:32:04.519Z,2.78
2022-12-09T00:34:37.631Z,2.90
2022-12-09T00:37:09.623Z,2.70
2022-12-09T00:39:40.139Z,3.05
2022-12-09T00:42:13.128Z,2.65
2022-12-09T00:44:42.784Z,2.60
2022-12-09T00:47:16.177Z,3.05
2022-12-09T00:49:48.242Z,2.80
2022-12-09T00:52:18.360Z,3.00
2022-12-09T00:54:45.851Z,3.22
2022-12-09T00:57:18.141Z,3.25
2022-12-09T00:59:54.111Z,3.08
2022-12-09T01:02:21.273Z,3.05
2022-12-09T01:04:52.681Z,2.97
2022-12-09T01:07:25.808Z,3.35
2022-12-09T01:09:55.797Z,2.75
2022-12-09T01:12:26.153Z,3.40
2022-12-09T01:15:00.433Z,2.97
2022-12-09T01:17:31.674Z,3.20
2022-12-09T01:20:02.930Z,3.38
2022-12-09T01:22:36.088Z,3.30
2022-12-09T01:25:07.209Z,3.30
2022-12-09T01:27:39.650Z,3.85
2022-12-09T01:30:13.357Z,3.58
2022-12-09T01:32:44.277Z,3.13
2022-12-09T01:35:19.392Z,3.05
2022-12-09T01:37:52.531Z,4.10
2022-12-09T01:40:28.882Z,3.70
2022-12-09T01:43:01.950Z,3.10
2022-12-09T01:45:38.182Z,3.72
2022-12-09T01:48:31.653Z,3.25
2022-12-09T01:51:09.436Z,3.08
2022-12-09T01:53:45.248Z,2.95
2022-12-09T01:56:24.843Z,3.58
2022-12-09T01:58:55.985Z,2.88
2022-12-09T02:01:27.485Z,3.42
2022-12-09T02:03:55.095Z,3.80
2022-12-09T02:06:26.311Z,3.00
2022-12-09T02:08:54.148Z,3.03
2022-12-09T02:11:25.638Z,2.90
2022-12-09T02:14:01.440Z,3.30
2022-12-09T02:16:32.830Z,3.00
2022-12-09T02:19:17.619Z,2.70
2022-12-09T02:22:00.216Z,2.83
2022-12-09T02:24:40.825Z,3.22
2022-12-09T02:27:18.477Z,2.60
2022-12-09T02:29:46.554Z,2.97
2022-12-09T02:32:17.864Z,3.35
2022-12-09T02:34:46.722Z,3.60
2022-12-09T02:37:22.251Z,3.92
2022-12-09T02:40:02.212Z,2.75
2022-12-09T02:42:32.344Z,2.92
2022-12-09T02:45:05.333Z,3.00
2022-12-09T02:47:37.024Z,3.67
2022-12-09T02:50:13.385Z,2.72
2022-12-09T02:52:45.171Z,3.95
2022-12-09T02:55:14.606Z,3.08
2022-12-09T02:57:44.756Z,3.33
2022-12-09T03:00:18.354Z,3.60
2022-12-09T03:02:49.096Z,2.78
2022-12-09T03:05:24.078Z,3.05
2022-12-09T03:07:54.218Z,2.58
2022-12-09T03:10:32.285Z,2.78
2022-12-09T03:13:11.329Z,2.80
2022-12-09T03:15:45.451Z,2.80
2022-12-09T03:18:17.130Z,2.95
2022-12-09T03:20:53.106Z,3.55
2022-12-09T03:23:28.597Z,3.15
2022-12-09T03:25:58.643Z,2.67
2022-12-09T03:28:46.439Z,3.05
2022-12-09T03:31:20.848Z,2.97
2022-12-09T03:33:49.741Z,3.03
2022-12-09T03:36:24.320Z,2.70
2022-12-09T03:38:52.575Z,2.80
2022-12-09T03:41:29.596Z,3.15
2022-12-09T03:44:06.881Z,2.90
2022-12-09T03:46:34.593Z,3.45
2022-12-09T03:52:03.589Z,3.30
2022-12-09T03:54:37.377Z,2.80
2022-12-09T03:57:19.027Z,3.25
2022-12-09T04:00:07.568Z,3.00
2022-12-09T04:02:41.595Z,2.95
2022-12-09T04:05:14.602Z,2.83
2022-12-09T04:07:47.827Z,3.08
2022-12-09T04:10:21.226Z,3.40
2022-12-09T04:12:51.339Z,3.38
2022-12-09T04:15:23.810Z,3.15
2022-12-09T04:17:56.828Z,3.38
2022-12-09T04:20:30.270Z,3.28
2022-12-09T04:23:03.576Z,3.15
2022-12-09T04:25:34.095Z,2.42
2022-12-09T04:28:07.340Z,2.80
2022-12-09T04:30:40.548Z,2.95
2022-12-09T04:33:07.899Z,2.88
2022-12-09T04:35:39.944Z,2.85
2022-12-09T04:38:17.474Z,2.90
2022-12-09T04:40:48.419Z,2.70
2022-12-09T04:43:24.065Z,3.30
2022-12-09T04:45:57.691Z,2.88
2022-12-09T04:48:28.563Z,2.85
2022-12-09T04:50:58.589Z,2.63
2022-12-09T04:53:31.684Z,2.30
2022-12-09T04:56:03.631Z,2.75
2022-12-09T04:58:33.149Z,3.33
2022-12-09T05:01:05.346Z,2.75
2022-12-09T05:03:38.654Z,3.00
2022-12-09T05:06:12.658Z,2.90
2022-12-09T05:08:42.568Z,3.15
2022-12-09T05:11:19.459Z,3.75
2022-12-09T05:13:50.315Z,3.13
2022-12-09T05:16:22.572Z,3.15
2022-12-09T05:18:55.554Z,2.67
2022-12-09T05:21:26.391Z,2.33
2022-12-09T05:23:59.655Z,2.58
2022-12-09T05:26:30.633Z,4.03
2022-12-09T05:29:00.795Z,2.53
2022-12-09T05:31:33.614Z,3.10
2022-12-09T05:34:04.172Z,2.63
2022-12-09T05:36:32.362Z,2.60
2022-12-09T05:39:06.223Z,2.47
2022-12-09T05:41:44.032Z,3.15
2022-12-09T05:44:17.185Z,3.65
2022-12-09T05:46:50.555Z,3.60
2022-12-09T05:49:29.643Z,2.92
2022-12-09T05:52:03.291Z,3.28
2022-12-09T05:54:32.711Z,2.85
2022-12-09T05:57:05.855Z,2.55
2022-12-09T05:59:36.692Z,3.97
2022-12-09T06:02:10.428Z,3.45
2022-12-09T06:04:43.769Z,3.08
2022-12-09T06:07:14.184Z,3.13
2022-12-09T06:09:45.125Z,3.45
2022-12-09T06:12:18.768Z,2.55
2022-12-09T06:14:52.095Z,3.70
2022-12-09T06:17:22.886Z,2.85
2022-12-09T06:19:56.061Z,3.22
2022-12-09T06:22:24.134Z,3.08
2022-12-09T06:24:57.082Z,2.92
2022-12-09T06:27:27.590Z,3.50
2022-12-09T06:29:54.839Z,2.88
2022-12-09T06:32:27.244Z,3.58
2022-12-09T06:34:58.912Z,3.90
2022-12-09T06:37:25.883Z,2.80
2022-12-09T06:39:58.219Z,2.95
2022-12-09T06:42:34.944Z,2.70
2022-12-09T06:45:04.837Z,3.15
2022-12-09T06:47:40.577Z,3.10
2022-12-09T06:50:13.140Z,2.95
2022-12-09T06:52:44.171Z,3.30
2022-12-09T06:55:13.628Z,3.50
2022-12-09T06:57:44.560Z,3.20
2022-12-09T07:00:15.354Z,2.83
2022-12-09T07:02:48.546Z,3.92
2022-12-09T07:05:25.051Z,3.00
2022-12-09T07:07:55.421Z,3.05
2022-12-09T07:10:28.095Z,3.13
2022-12-09T07:12:58.687Z,2.78
2022-12-09T07:15:31.575Z,3.47
2022-12-09T07:18:01.156Z,4.05
2022-12-09T07:20:28.568Z,3.50
2022-12-09T07:23:01.749Z,3.47
2022-12-09T07:25:35.487Z,3.95
2022-12-09T07:28:09.111Z,3.65
2022-12-09T07:30:41.564Z,3.72
2022-12-09T07:33:12.273Z,3.17
2022-12-09T07:35:41.932Z,3.08
2022-12-09T07:38:12.175Z,3.13
2022-12-09T07:40:45.529Z,3.60
2022-12-09T07:43:18.745Z,3.63
2022-12-09T07:45:51.440Z,3.60
2022-12-09T07:48:21.701Z,3.40
2022-12-09T07:50:55.179Z,3.15
2022-12-09T07:53:31.520Z,3.17
2022-12-09T07:56:03.153Z,2.65
2022-12-09T07:58:37.744Z,2.92
2022-12-09T08:01:08.906Z,3.22
2022-12-09T08:03:40.498Z,3.03
2022-12-09T08:06:10.928Z,3.25
2022-12-09T08:08:38.300Z,3.60
2022-12-09T08:11:12.846Z,3.47
2022-12-09T08:13:43.090Z,3.25
2022-12-09T08:16:15.273Z,3.08
2022-12-09T08:18:50.457Z,3.15
2022-12-09T08:21:28.515Z,3.05
2022-12-09T08:24:08.230Z,3.40
2022-12-09T08:26:42.527Z,3.20
2022-12-09T08:29:14.343Z,2.95
2022-12-09T08:31:47.428Z,3.13
2022-12-09T08:34:15.334Z,3.38
2022-12-09T08:36:54.666Z,3.25
2022-12-09T08:39:31.894Z,3.35
2022-12-09T08:42:04.993Z,3.67
2022-12-09T08:44:40.024Z,3.45
2022-12-09T08:47:10.730Z,4.35
2022-12-09T08:49:38.502Z,4.00
2022-12-09T08:52:08.208Z,4.30
2022-12-09T08:54:41.901Z,4.28
2022-12-09T08:57:08.984Z,3.58
2022-12-09T08:59:45.214Z,3.95
2022-12-09T09:02:16.391Z,4.45
2022-12-09T09:04:48.430Z,4.45
2022-12-09T09:07:19.309Z,4.20
2022-12-09T09:09:49.699Z,4.40
2022-12-09T09:12:18.214Z,4.45
2022-12-09T09:14:51.007Z,4.07
2022-12-09T09:17:21.904Z,4.72
2022-12-09T09:19:52.440Z,3.75
2022-12-09T09:22:19.726Z,4.07
2022-12-09T09:24:51.316Z,4.38
2022-12-09T09:27:24.378Z,4.05
2022-12-09T09:29:51.765Z,3.63
2022-12-09T09:32:25.629Z,4.10
2022-12-09T09:34:56.095Z,5.18
2022-12-09T09:37:25.903Z,4.15
2022-12-09T09:39:56.893Z,4.50
2022-12-09T09:42:34.480Z,4.13
2022-12-09T09:45:08.717Z,4.63
2022-12-09T09:48:08.132Z,3.70
2022-12-09T09:51:11.190Z,3.78
2022-12-09T09:53:38.466Z,3.97
2022-12-09T09:56:11.902Z,3.72
2022-12-09T09:58:45.206Z,3.53
2022-12-09T10:01:21.154Z,4.38
2022-12-09T10:03:58.988Z,3.92
2022-12-09T11:09:43.806Z,3.35
2022-12-09T11:12:19.263Z,3.17
2022-12-09T11:14:54.093Z,3.15
2022-12-09T11:17:35.977Z,2.35
2022-12-09T11:20:06.465Z,3.20
2022-12-09T11:22:40.925Z,3.10
2022-12-09T11:25:31.197Z,3.78
2022-12-09T11:28:18.064Z,2.70
2022-12-09T11:31:27.629Z,3.00
2022-12-09T11:33:58.311Z,2.30
2022-12-09T11:36:36.994Z,2.60
2022-12-09T11:39:13.757Z,3.22
2022-12-09T11:42:16.615Z,2.58
2022-12-09T11:44:53.626Z,2.63
2022-12-09T11:47:36.478Z,3.08
2022-12-09T11:50:25.592Z,4.32
2022-12-09T11:53:11.021Z,3.83
2022-12-09T11:55:49.769Z,3.85
2022-12-09T11:58:21.728Z,4.57
2022-12-09T12:00:58.227Z,3.60
2022-12-09T12:03:47.579Z,5.20
2022-12-09T12:06:26.563Z,4.78
2022-12-09T12:08:56.438Z,4.00
2022-12-09T12:11:34.776Z,3.17
2022-12-09T12:14:08.040Z,3.72
2022-12-09T12:16:39.989Z,4.72
2022-12-09T12:19:19.012Z,4.13
2022-12-09T12:21:56.241Z,4.07
2022-12-09T12:24:32.045Z,4.07
2022-12-09T12:27:20.211Z,4.38
2022-12-09T12:29:54.855Z,4.88
2022-12-09T12:32:33.177Z,4.70
2022-12-09T12:35:24.041Z,4.47
2022-12-09T12:38:07.935Z,3.58
2022-12-09T12:40:56.780Z,4.72
2022-12-09T12:43:51.306Z,3.58
2022-12-09T12:46:18.688Z,3.67
2022-12-09T12:48:51.960Z,3.75
2022-12-09T12:51:54.042Z,4.18
2022-12-09T12:54:26.604Z,3.58
2022-12-09T12:57:12.376Z,4.15
2022-12-09T12:59:48.700Z,4.05
2022-12-09T13:02:35.803Z,4.00
2022-12-09T13:05:13.516Z,3.75
2022-12-09T13:07:44.107Z,4.05
2022-12-09T13:10:28.650Z,3.92
2022-12-09T13:13:01.974Z,3.80
2022-12-09T13:15:35.288Z,3.80
2022-12-09T13:18:07.673Z,3.83
2022-12-09T13:20:47.153Z,4.20
2022-12-09T13:23:20.395Z,4.15
2022-12-09T13:25:50.173Z,4.00
2022-12-09T13:28:23.034Z,4.03
2022-12-09T13:30:59.726Z,4.28
2022-12-09T13:33:40.121Z,3.90
2022-12-09T13:36:21.772Z,3.75
2022-12-09T13:38:52.370Z,4.00
2022-12-09T13:41:31.529Z,3.63
2022-12-09T13:44:04.183Z,4.40
2022-12-09T13:46:34.726Z,3.17
2022-12-09T13:49:14.624Z,4.53
2022-12-09T13:51:55.244Z,3.60
2022-12-09T13:54:32.074Z,4.18
2022-12-09T13:57:24.205Z,4.18
2022-12-09T13:59:58.220Z,3.88
2022-12-09T14:02:36.138Z,4.13
2022-12-09T14:05:31.266Z,3.13
2022-12-09T14:08:07.359Z,3.55
2022-12-09T14:10:38.624Z,3.95
2022-12-09T14:13:22.482Z,3.67
2022-12-09T14:16:09.685Z,4.00
2022-12-09T14:18:39.909Z,4.35
2022-12-09T14:21:19.506Z,3.08
2022-12-09T14:24:04.845Z,3.45
2022-12-09T14:27:01.391Z,3.78
2022-12-09T14:29:46.321Z,3.33
2022-12-09T14:32:30.991Z,4.70
2022-12-09T14:35:09.576Z,3.80
2022-12-09T14:37:45.652Z,3.50
2022-12-09T14:40:24.328Z,3.22
2022-12-09T14:43:17.003Z,3.03
2022-12-09T14:46:05.918Z,3.63
2022-12-09T14:48:35.198Z,3.75
2022-12-09T14:51:08.081Z,3.45
2022-12-09T14:53:40.152Z,3.50
2022-12-09T14:56:10.295Z,3.45
2022-12-09T15:01:35.920Z,3.35
2022-12-09T15:04:07.128Z,2.78
2022-12-09T15:06:37.172Z,2.72
2022-12-09T15:09:07.429Z,3.10
2022-12-09T15:11:38.850Z,2.70
2022-12-09T15:14:28.864Z,3.28
2022-12-09T15:17:08.327Z,3.22
2022-12-09T15:19:59.771Z,3.00
2022-12-09T15:22:28.044Z,2.85
2022-12-09T15:24:55.213Z,2.92
2022-12-09T15:27:30.006Z,2.97
2022-12-09T15:30:00.223Z,2.95
2022-12-09T15:32:31.838Z,2.90
2022-12-09T15:35:19.079Z,3.05
2022-12-09T15:37:49.656Z,2.90
2022-12-09T15:40:19.483Z,2.58
2022-12-09T15:42:54.736Z,2.60
2022-12-09T15:45:29.090Z,2.65
2022-12-09T15:48:05.235Z,3.30
2022-12-09T15:50:49.754Z,2.80
2022-12-09T15:53:34.097Z,3.03
2022-12-09T15:56:17.619Z,2.97
2022-12-09T15:58:54.749Z,2.65
2022-12-09T16:01:25.671Z,3.10
2022-12-09T16:03:57.878Z,2.58
2022-12-09T16:06:35.314Z,2.92
2022-12-09T16:09:15.271Z,2.60
2022-12-09T16:11:56.410Z,2.92
2022-12-09T16:14:29.350Z,2.97
2022-12-09T16:16:58.837Z,2.83
2022-12-09T16:19:26.652Z,2.55
2022-12-09T16:22:08.398Z,3.33
2022-12-09T16:27:39.054Z,2.75
2022-12-09T16:30:13.495Z,3.17
2022-12-09T16:32:46.472Z,2.90
2022-12-09T16:35:22.881Z,3.00
2022-12-09T16:37:58.859Z,2.85
2022-12-09T16:40:29.484Z,2.38
2022-12-09T16:43:20.118Z,3.35
2022-12-09T16:45:53.829Z,2.80
2022-12-09T16:48:31.197Z,2.95
2022-12-09T16:51:14.542Z,2.45
2022-12-09T16:53:50.794Z,2.40
2022-12-09T16:56:26.871Z,3.05
2022-12-09T16:58:55.046Z,2.65
2022-12-09T17:01:27.194Z,2.95
2022-12-09T17:04:01.118Z,2.88
2022-12-09T17:06:33.900Z,2.67
2022-12-09T17:09:06.831Z,2.40
2022-12-09T17:11:37.586Z,2.75
2022-12-09T17:14:07.209Z,3.45
2022-12-09T17:16:40.918Z,3.05
2022-12-09T17:19:13.623Z,3.80
2022-12-09T17:21:52.395Z,2.92
2022-12-09T17:24:21.294Z,2.65
2022-12-09T17:26:50.879Z,2.25
2022-12-09T17:29:20.656Z,3.10
2022-12-09T17:31:50.164Z,2.92
2022-12-09T17:34:19.251Z,3.20
2022-12-09T17:36:50.361Z,2.33
2022-12-09T17:39:20.713Z,2.33
2022-12-09T17:41:54.144Z,2.55
2022-12-09T17:44:26.606Z,2.75
2022-12-09T17:46:53.627Z,2.58
2022-12-09T17:49:21.163Z,2.33
2022-12-09T17:51:52.024Z,2.67
2022-12-09T17:54:24.473Z,2.53
2022-12-09T17:56:56.253Z,3.22
2022-12-09T17:59:26.792Z,3.03
2022-12-09T18:01:58.504Z,2.63
2022-12-09T18:04:31.500Z,2.45
2022-12-09T18:07:01.887Z,2.45
2022-12-09T18:09:28.742Z,2.95
2022-12-09T18:12:04.679Z,3.13
2022-12-09T18:14:37.631Z,3.22
2022-12-09T18:17:07.523Z,2.53
2022-12-09T18:19:38.004Z,2.55
2022-12-09T18:22:08.564Z,2.50
2022-12-09T18:24:37.674Z,2.33
2022-12-09T18:27:09.278Z,3.00
2022-12-09T18:29:42.499Z,2.45
2022-12-09T18:32:12.153Z,3.00
2022-12-09T18:34:42.913Z,2.90
2022-12-09T18:37:10.160Z,2.85
2022-12-09T18:39:37.743Z,2.72
2022-12-09T18:42:05.157Z,2.10
2022-12-09T18:44:39.110Z,2.35
2022-12-09T18:47:09.155Z,2.50
2022-12-09T18:49:37.431Z,3.28
2022-12-09T18:52:05.016Z,2.75
2022-12-09T18:54:37.538Z,2.78
2022-12-09T18:57:07.427Z,2.80
2022-12-09T18:59:37.270Z,2.83
2022-12-09T19:02:09.758Z,2.70
2022-12-09T19:04:39.941Z,2.80
2022-12-09T19:07:10.290Z,2.22
2022-12-09T19:09:43.438Z,2.08
2022-12-09T19:12:45.832Z,3.00
2022-12-09T19:15:12.275Z,2.90
2022-12-09T19:17:43.102Z,2.65
2022-12-09T19:20:16.616Z,1.98
2022-12-09T19:22:47.008Z,2.30
2022-12-09T19:25:17.263Z,2.20
2022-12-09T19:27:47.273Z,2.95
2022-12-09T19:30:16.948Z,2.80
2022-12-09T19:32:54.407Z,2.92
2022-12-09T19:35:23.782Z,2.78
2022-12-09T19:38:01.209Z,2.75
2022-12-09T19:40:31.775Z,2.45
2022-12-09T19:43:04.135Z,3.00
2022-12-09T19:45:31.666Z,2.25
2022-12-09T19:48:08.102Z,2.28
2022-12-09T19:50:41.256Z,2.45
2022-12-09T19:53:14.105Z,3.20
2022-12-09T19:55:50.416Z,3.35
2022-12-09T19:58:22.725Z,2.65
2022-12-09T20:00:52.732Z,3.17
2022-12-09T20:03:23.940Z,2.83
2022-12-09T20:05:55.448Z,2.78
2022-12-09T20:08:25.429Z,2.67
2022-12-09T20:10:52.983Z,2.92
2022-12-09T20:13:30.166Z,2.88
2022-12-09T20:16:06.156Z,3.13
2022-12-09T20:18:38.814Z,3.88
2022-12-09T20:21:10.201Z,2.90
2022-12-09T20:23:43.747Z,3.45
2022-12-09T20:26:13.978Z,2.95
2022-12-09T20:28:44.238Z,3.33
2022-12-09T20:31:15.664Z,2.85
2022-12-09T20:33:46.103Z,3.42
2022-12-09T20:36:17.120Z,3.20
2022-12-09T20:38:45.191Z,2.80
2022-12-09T20:41:16.006Z,3.15
2022-12-09T20:43:47.228Z,3.05
2022-12-09T20:46:17.402Z,3.15
2022-12-09T20:48:48.131Z,2.92
2022-12-09T20:51:34.315Z,2.75
2022-12-09T20:54:01.671Z,2.75
2022-12-09T20:56:33.953Z,2.63
2022-12-09T20:59:04.587Z,2.40
2022-12-09T21:01:36.031Z,3.97
2022-12-09T21:04:10.215Z,3.97
2022-12-09T21:06:39.525Z,3.40
2022-12-09T21:09:18.856Z,3.15
2022-12-09T21:11:49.198Z,3.42
2022-12-09T21:14:26.893Z,2.47
2022-12-09T21:17:01.332Z,3.20
2022-12-09T21:19:32.650Z,2.92
2022-12-09T21:22:05.251Z,2.75
2022-12-09T21:24:38.252Z,2.95
2022-12-09T21:27:13.794Z,3.25
2022-12-09T21:29:46.865Z,2.97
2022-12-09T21:32:22.494Z,3.10
2022-12-09T21:35:02.382Z,2.38
2022-12-09T21:37:32.158Z,2.42
2022-12-09T21:40:00.916Z,2.67
2022-12-09T21:42:30.738Z,3.33
2022-12-09T21:45:03.348Z,3.55
2022-12-09T21:47:33.766Z,3.22
2022-12-09T21:50:07.000Z,2.50
2022-12-09T21:52:34.191Z,2.70
2022-12-09T21:55:10.148Z,2.88
2022-12-09T21:57:40.917Z,3.30
2022-12-09T22:00:11.321Z,2.80
2022-12-09T22:02:43.328Z,3.03
2022-12-09T22:05:14.016Z,3.78
2022-12-09T22:07:44.516Z,3.25
2022-12-09T22:10:14.731Z,3.10
2022-12-09T22:12:50.052Z,2.88
2022-12-09T22:15:21.923Z,3.20
2022-12-09T22:17:55.748Z,3.72
2022-12-09T22:21:07.787Z,2.92
2022-12-09T22:23:21.042Z,3.13
2022-12-09T22:25:50.597Z,2.80
2022-12-09T22:28:21.155Z,3.55
2022-12-09T22:30:50.883Z,3.38
2022-12-09T22:33:22.435Z,3.13
2022-12-09T22:35:50.331Z,3.17
2022-12-09T22:38:22.613Z,3.40
2022-12-09T22:41:01.726Z,3.53
2022-12-09T22:43:38.007Z,3.83
2022-12-09T22:46:12.457Z,3.60
2022-12-09T22:48:40.252Z,3.80
2022-12-09T22:51:12.485Z,3.22
2022-12-09T22:53:45.881Z,3.38
2022-12-09T22:56:15.896Z,3.58
2022-12-09T22:58:43.908Z,3.20
2022-12-09T23:01:18.131Z,3.63
2022-12-09T23:03:48.410Z,4.00
2022-12-09T23:06:19.322Z,3.13
2022-12-09T23:08:52.292Z,2.85
2022-12-09T23:12:02.196Z,3.45
2022-12-09T23:14:32.126Z,3.47
2022-12-09T23:17:02.886Z,3.90
2022-12-09T23:19:37.281Z,3.85
2022-12-09T23:22:07.340Z,3.40
2022-12-09T23:24:37.802Z,3.42
2022-12-09T23:27:07.656Z,3.70
2022-12-09T23:29:35.016Z,3.95
2022-12-09T23:32:01.756Z,4.32
2022-12-09T23:34:34.675Z,3.97
2022-12-09T23:37:07.358Z,3.67
2022-12-09T23:39:39.678Z,4.53
2022-12-09T23:42:12.534Z,4.43
2022-12-09T23:44:46.138Z,4.07
2022-12-09T23:47:18.967Z,4.30
2022-12-09T23:49:46.851Z,4.00
2022-12-09T23:52:19.486Z,4.20
2022-12-09T23:54:50.238Z,3.90
2022-12-09T23:57:22.681Z,4.80
2022-12-09T23:59:55.816Z,4.05
